map of CGI home
CGI - Airport
Location
City:  Cape Girardeau, Missouri, United States
Name:Cape Girardeau Regional
ICAO:KCGI
IATA:CGI
FAA LID:CGI

Details
Type:Airport (Part 139 Class I)
Use:Public/Civil
Latitude:3713'31"N (37.225306)
Longitude:8934'15"W (-89.570749)
Datum:WGS 1984
Elevation:341 ft (104 m)
Variation:1.90W (WMM2015v2 magnetic declination)
-0.07 annual change
Runways:2
Longest:6500 × 150 ft (1981 × 45.5 m), paved

Time
Time Zone:UTC-6 (DST-5)
Local Time:

Weather
METAR:KCGI 041353Z 19011KT 7SM OVC008 14/12 A2983 RMK AO2 SLP099 T01390122
TAF:KCGI 041120Z 0412/0512 18014KT P6SM OVC018
FM041800 20012KT P6SM VCSH OVC008
FM042100 20011KT P6SM OVC010
FM050800 01010KT P6SM OVC008

Related Locations
Nearby:
Farthest:YAUG: 11044 mi / 17773 km
Augusta [Augusta Airport], WA, AU

Find:

   beyond  
but within

Other Information
Maps:
NOTAMs:
Links:
Sources:

  
  • flag of United States
  • flag of Missouri
  

Airport Diagram

Airport diagram for CGI

Airport diagram PDF from FAA

Sectional Chart

Flight Planning
at skyvector.com

Satellite Image

Google Maps Satellite view

 

Copyright © 2004-2019 Karl L. Swartz. All rights reserved.
The Great Circle Mapper name and logo are trademarks of the Great Circle Mapper.
All other trademarks mentioned herein belong to their respective owners.
Please see credits for attibutions and further copyright information.

  Follow gcmap on Facebook Follow gcmap on Twitter GCmap on LinkedIn

hCard Microformat

Geo Microformat